Latest Coastal Weather Observations for Green Cape

IDN60701

Issued at 6:25 pm EDT Sunday 23 November 2014 (issued every 10 minutes, with the page automatically refreshed every 10 minutes)

About coastal observations | Map of coastal stations | Coastal observations for NSW | Marine services | Other Formats
Station Details ID: 069137 Name: GREEN CAPE AWS Lat: -37.26 Lon: 150.05 Height: 19.4 m
Data from the previous 72 hours. | See also: Recent months at Green Cape
Date/Time
EDT
Temp

°C
Wind Pressure Rain
since 9am
mm
Weather Cloud Vis
km
Sea
Height
m
Swell
Dir
 
Speed
knots
Gust
knots
hPa Trend Height
m
Period
s
Dir
23/06:00pm 20.0 S 5 5 1012.6 - 0.0 - - - - - - -
23/05:30pm 20.5 SSE 6 7 1012.3 - 0.0 - - - - - - -
23/05:00pm 21.1 SSE 7 9 1012.3 - 0.0 - - - - - - -
23/04:30pm 20.9 SSE 9 10 1012.1 - 0.0 - - - - - - -
23/04:00pm 21.0 SSE 10 12 1012.2 - 0.0 - - - - - - -
23/03:30pm 21.0 SSE 13 15 1012.2 - 0.0 - - - - - - -
23/03:00pm 20.9 SSE 14 17 1012.0 - 0.0 - - - - - - -
23/02:30pm 20.8 SSE 16 18 1011.9 - 0.0 - - - - - - -
23/02:00pm 20.9 S 17 20 1011.7 - 0.0 - - - - - - -
23/01:30pm 21.2 S 18 20 1011.7 - 0.0 - - - - - - -
23/01:00pm 21.2 S 19 21 1011.7 - 0.0 - - - - - - -
23/12:30pm 21.2 S 19 23 1011.7 - 0.0 - - - - - - -
23/12:00pm 21.2 S 18 20 1011.7 - 0.0 - - - - - - -
23/11:30am 20.1 S 17 19 1012.1 - 0.0 - - - - - - -
23/11:00am 21.0 S 17 20 1011.9 - 0.0 - - - - - - -
23/10:30am 21.6 S 15 16 1012.0 - 0.0 - - - - - - -
23/10:00am 22.1 S 13 15 1011.9 - 0.0 - - - - - - -
23/09:30am 21.5 S 11 14 1011.4 - 0.0 - - - - - - -
23/09:00am 21.8 S 7 8 1011.7 - 0.6 - - - - - - -
23/08:30am 20.9 E 1 4 1011.3 - 0.6 - - - - - - -
23/08:00am 19.3 CALM 0 1 1010.9 - 0.6 - - - - - - -
23/07:30am 20.1 CALM 0 0 1011.0 - 0.0 - - - - - - -
23/07:00am 19.5 N 5 7 1010.0 - 0.0 - - - - - - -
23/06:30am 18.7 N 6 8 1009.2 - 0.0 - - - - - - -
23/06:00am 18.3 N 4 5 1009.4 - 0.0 - - - - - - -
23/05:30am 18.3 N 4 5 1008.9 - 0.0 - - - - - - -
23/05:00am 18.5 N 4 5 1009.2 - 0.0 - - - - - - -
23/04:30am 18.6 N 7 9 1008.4 - 0.0 - - - - - - -
23/04:00am 18.7 N 5 7 1009.0 - 0.0 - - - - - - -
23/03:30am 18.8 N 17 19 1007.9 - 0.0 - - - - - - -
23/03:00am 19.0 N 7 10 1008.8 - 0.0 - - - - - - -
23/02:30am 19.0 N 20 23 1008.0 - 0.0 - - - - - - -
23/02:00am 19.1 N 20 23 1007.9 - 0.0 - - - - - - -
23/01:30am 19.1 N 21 23 1008.6 - 0.0 - - - - - - -
23/01:00am 19.2 N 18 21 1009.3 - 0.0 - - - - - - -
23/12:30am 19.2 N 18 21 1009.5 - 0.0 - - - - - - -
23/12:00am 19.2 N 20 23 1009.4 - 0.0 - - - - - - -
 
Date/Time
EDT
Temp

°C
Wind Pressure Rain
since 9am
mm
Weather Cloud Vis
km
Sea
Height
m
Swell
Dir
 
Speed
knots
Gust
knots
hPa Trend Height
m
Period
s
Dir
22/11:30pm 19.2 N 21 24 1009.6 - 0.0 - - - - - - -
22/11:00pm 19.2 N 20 22 1010.0 - 0.0 - - - - - - -
22/10:30pm 19.2 N 18 20 1010.6 - 0.0 - - - - - - -
22/10:00pm 19.1 N 17 19 1010.9 - 0.0 - - - - - - -
22/09:30pm 19.1 N 15 18 1010.8 - 0.0 - - - - - - -
22/09:00pm 19.1 N 14 17 1010.9 - 0.0 - - - - - - -
22/08:30pm 19.2 N 14 17 1011.0 - 0.0 - - - - - - -
22/08:00pm 19.3 N 15 17 1010.7 - 0.0 - - - - - - -
22/07:30pm 19.4 N 18 21 1010.5 - 0.0 - - - - - - -
22/07:00pm 19.5 N 17 19 1010.2 - 0.0 - - - - - - -
22/06:30pm 19.8 N 18 20 1010.2 - 0.0 - - - - - - -
22/06:00pm 19.8 N 17 19 1010.2 - 0.0 - - - - - - -
22/05:30pm 20.6 N 16 18 1010.5 - 0.0 - - - - - - -
22/05:00pm 21.2 N 15 16 1010.8 - 0.0 - - - - - - -
22/04:30pm 21.4 N 14 16 1011.0 - 0.0 - - - - - - -
22/04:00pm 21.9 N 12 15 1011.5 - 0.0 - - - - - - -
22/03:30pm 22.3 NNE 12 14 1011.6 - 0.0 - - - - - - -
22/03:00pm 22.4 N 12 15 1011.7 - 0.0 - - - - - - -
22/02:30pm 22.6 NNE 12 14 1011.8 - 0.0 - - - - - - -
22/02:00pm 22.1 N 15 17 1012.0 - 0.0 - - - - - - -
22/01:30pm 22.1 NNE 14 17 1012.1 - 0.0 - - - - - - -
22/01:00pm 22.2 N 14 17 1012.2 - 0.0 - - - - - - -
22/12:30pm 21.9 N 15 17 1012.6 - 0.0 - - - - - - -
22/12:00pm 21.1 N 18 21 1012.8 - 0.0 - - - - - - -
22/11:30am 20.8 N 19 23 1012.6 - 0.0 - - - - - - -
22/11:00am 20.9 N 17 20 1013.2 - 0.0 - - - - - - -
22/10:30am 20.4 N 16 18 1013.4 - 0.0 - - - - - - -
22/10:00am 20.1 N 14 17 1013.8 - 0.0 - - - - - - -
22/09:30am 20.0 N 14 17 1013.9 - 0.0 - - - - - - -
22/09:00am 19.2 N 13 15 1014.1 - 0.0 - - - - - - -
22/08:30am 18.6 N 12 14 1014.1 - 0.0 - - - - - - -
22/08:00am 18.7 N 12 14 1014.4 - 0.0 - - - - - - -
22/07:30am 18.4 NNE 10 12 1014.3 - 0.0 - - - - - - -
22/07:00am 18.0 NNE 6 8 1014.2 - 0.0 - - - - - - -
22/06:30am 17.0 N 5 6 1014.1 - 0.0 - - - - - - -
22/06:00am 16.4 N 4 5 1014.1 - 0.0 - - - - - - -
22/05:30am 16.4 N 4 7 1013.9 - 0.0 - - - - - - -
22/05:00am 16.1 N 3 3 1014.0 - 0.0 - - - - - - -
22/04:30am 16.0 CALM 0 0 1013.9 - 0.0 - - - - - - -
22/04:00am 16.2 S 3 4 1013.8 - 0.0 - - - - - - -
22/03:30am 16.1 S 3 4 1013.8 - 0.0 - - - - - - -
22/03:00am 16.1 SSE 5 6 1013.8 - 0.0 - - - - - - -
22/02:30am 16.0 S 4 6 1014.0 - 0.0 - - - - - - -
22/02:00am 15.9 CALM 0 0 1014.4 - 0.0 - - - - - - -
22/01:30am 16.0 CALM 0 0 1014.6 - 0.0 - - - - - - -
22/01:00am 16.0 CALM 0 0 1014.9 - 0.0 - - - - - - -
22/12:30am 16.2 SW 3 4 1015.0 - 0.0 - - - - - - -
22/12:00am 16.4 SW 6 7 1015.1 - 0.0 - - - - - - -
 
Date/Time
EDT
Temp

°C
Wind Pressure Rain
since 9am
mm
Weather Cloud Vis
km
Sea
Height
m
Swell
Dir
 
Speed
knots
Gust
knots
hPa Trend Height
m
Period
s
Dir
21/11:30pm 16.4 SSW 10 12 1014.9 - 0.0 - - - - - - -
21/11:00pm 16.1 SSW 10 12 1014.8 - 0.0 - - - - - - -
21/10:30pm 16.2 SSW 14 15 1014.6 - 0.0 - - - - - - -
21/10:00pm 16.4 SW 12 14 1014.7 - 0.0 - - - - - - -
21/09:30pm 16.8 SW 11 13 1014.5 - 0.0 - - - - - - -
21/09:00pm 16.7 SW 13 15 1013.8 - 0.0 - - - - - - -
21/08:30pm 16.7 S 16 18 1013.1 - 0.0 - - - - - - -
21/08:00pm 16.9 S 18 21 1012.3 - 0.0 - - - - - - -
21/07:30pm 17.0 S 20 22 1011.6 - 0.0 - - - - - - -
21/07:00pm 17.4 S 19 22 1011.0 - 0.0 - - - - - - -
21/06:30pm 17.8 S 18 22 1010.5 - 0.0 - - - - - - -
21/06:00pm 18.1 SSW 20 23 1009.5 - 0.0 - - - - - - -
21/05:30pm 18.3 S 20 23 1009.2 - 0.0 - - - - - - -
21/05:00pm 18.1 S 22 25 1008.7 - 0.0 - - - - - - -
21/04:30pm 19.3 SSW 21 24 1008.5 - 0.0 - - - - - - -
21/04:00pm 19.3 SSW 22 26 1008.1 - 0.0 - - - - - - -
21/03:30pm 19.6 SSW 21 24 1008.0 - 0.0 - - - - - - -
21/03:00pm 19.8 SSW 21 25 1007.7 - 0.0 - - - - - - -
21/02:30pm 19.7 S 23 27 1007.1 - 0.0 - - - - - - -
21/02:00pm 20.1 S 24 28 1007.1 - 0.0 - - - - - - -
21/01:30pm 20.2 S 22 25 1007.1 - 0.0 - - - - - - -
21/01:00pm 20.0 S 24 27 1007.0 - 0.0 - - - - - - -
21/12:30pm 20.0 S 25 30 1006.8 - 0.0 - - - - - - -
21/12:00pm 21.4 S 25 29 1006.1 - 0.0 - - - - - - -
21/11:30am 22.1 S 21 24 1005.8 - 0.0 - - - - - - -
21/11:00am 23.3 S 15 19 1006.2 - 0.0 - - - - - - -
21/10:30am 23.1 S 13 15 1006.5 - 0.0 - - - - - - -
21/10:00am 23.4 SSW 1 7 1006.6 - 0.0 - - - - - - -
21/09:30am 22.9 CALM 0 0 1006.4 - 0.0 - - - - - - -
21/09:00am 22.2 CALM 0 1 1006.4 - 0.0 - - - - - - -
21/08:30am 21.5 CALM 0 0 1006.3 - 0.0 - - - - - - -
21/08:00am 21.6 N 4 7 1005.9 - 0.0 - - - - - - -
21/07:30am 19.9 N 4 7 1005.4 - 0.0 - - - - - - -
21/07:00am 19.2 N 2 4 1005.0 - 0.0 - - - - - - -
21/06:30am 18.9 N 4 4 1004.7 - 0.0 - - - - - - -
21/06:00am 18.6 N 6 7 1004.3 - 0.0 - - - - - - -
21/05:30am 18.6 N 8 10 1003.9 - 0.0 - - - - - - -
21/05:00am 18.5 N 5 6 1003.9 - 0.0 - - - - - - -
21/04:30am 18.7 NNE 3 3 1004.3 - 0.0 - - - - - - -
21/04:00am 18.7 W 3 4 1005.5 - 0.0 - - - - - - -
21/03:30am 18.8 WSW 4 5 1006.0 - 0.0 - - - - - - -
21/03:00am 18.8 W 4 5 1006.4 - 0.0 - - - - - - -
21/02:30am 19.2 WSW 5 6 1006.9 - 0.0 - - - - - - -
21/02:00am 19.2 SW 9 10 1007.0 - 0.0 - - - - - - -
21/01:30am 19.0 SSW 10 10 1006.9 - 0.0 - - - - - - -
21/01:00am 19.1 SSW 11 14 1007.3 - 0.0 - - - - - - -
21/12:30am 19.3 SSW 12 14 1007.5 - 0.0 - - - - - - -
21/12:00am 19.7 SSW 17 19 1007.4 - 0.0 - - - - - - -
 
Date/Time
EDT
Temp

°C
Wind Pressure Rain
since 9am
mm
Weather Cloud Vis
km
Sea
Height
m
Swell
Dir
 
Speed
knots
Gust
knots
hPa Trend Height
m
Period
s
Dir
20/11:30pm 19.8 SSW 17 19 1007.9 - 0.0 - - - - - - -
20/11:00pm 20.1 SSW 17 21 1007.9 - 0.0 - - - - - - -
20/10:30pm 20.9 SSW 26 31 1007.1 - 0.0 - - - - - - -
20/10:23pm 21.0 S 25 31 1006.8 - 0.0 - - - - - - -
20/10:07pm 21.1 SSE 16 24 1006.8 - 0.0 - - - - - - -
20/10:00pm 20.9 NNE 2 10 1008.1 - 0.0 - - - - - - -
20/09:30pm 20.7 CALM 0 1 1007.3 - 0.0 - - - - - - -
20/09:00pm 21.7 CALM 0 2 1006.9 - 0.0 - - - - - - -
20/08:30pm 20.9 NNW 3 4 1007.0 - 0.0 - - - - - - -
20/08:00pm 21.0 N 7 9 1006.7 - 0.0 - - - - - - -
20/07:30pm 21.0 N 5 7 1006.6 - 0.0 - - - - - - -
20/07:00pm 20.9 N 11 12 1006.1 - 0.0 - - - - - - -
20/06:30pm 21.5 N 11 12 1005.8 - 0.0 - - - - - - -

Other Formats:

Comma delimited format used in spreadsheet applications
http://www.bom.gov.au/fwo/IDN60701/IDN60701.94934.axf

JavaScript Object Notation format (JSON) in row-major order
http://www.bom.gov.au/fwo/IDN60701/IDN60701.94934.json